sensor_id;sensor_type;location;lat;lon;timestamp;pressure;altitude;pressure_sealevel;temperature;humidity
3796;BME280;1913;50.660;7.834;2023-05-14T00:00:39;149801.44;;;7.10;100.00
3796;BME280;1913;50.660;7.834;2023-05-14T00:03:05;149796.44;;;7.08;100.00
3796;BME280;1913;50.660;7.834;2023-05-14T00:05:30;149798.94;;;7.09;100.00
3796;BME280;1913;50.660;7.834;2023-05-14T00:07:57;149788.91;;;7.05;100.00
3796;BME280;1913;50.660;7.834;2023-05-14T00:10:40;149793.91;;;7.07;100.00
3796;BME280;1913;50.660;7.834;2023-05-14T00:13:10;149781.41;;;7.02;100.00
3796;BME280;1913;50.660;7.834;2023-05-14T00:15:35;149787.69;;;7.05;100.00
3796;BME280;1913;50.660;7.834;2023-05-14T00:18:01;149788.91;;;7.05;100.00
3796;BME280;1913;50.660;7.834;2023-05-14T00:20:26;149781.41;;;7.02;100.00
3796;BME280;1913;50.660;7.834;2023-05-14T00:22:52;149790.16;;;7.06;100.00
3796;BME280;1913;50.660;7.834;2023-05-14T00:25:17;149783.88;;;7.03;100.00
3796;BME280;1913;50.660;7.834;2023-05-14T00:27:43;149788.91;;;7.05;100.00
3796;BME280;1913;50.660;7.834;2023-05-14T00:30:08;149777.59;;;7.01;100.00
3796;BME280;1913;50.660;7.834;2023-05-14T00:32:34;149785.13;;;7.04;100.00
3796;BME280;1913;50.660;7.834;2023-05-14T00:35:00;149786.38;;;7.04;100.00
3796;BME280;1913;50.660;7.834;2023-05-14T00:37:28;149767.59;;;6.96;100.00
3796;BME280;1913;50.660;7.834;2023-05-14T00:39:54;149753.81;;;6.91;100.00
3796;BME280;1913;50.660;7.834;2023-05-14T00:42:20;149762.59;;;6.94;100.00
3796;BME280;1913;50.660;7.834;2023-05-14T00:44:45;149736.28;;;6.84;100.00
3796;BME280;1913;50.660;7.834;2023-05-14T00:47:11;149722.47;;;6.78;100.00
3796;BME280;1913;50.660;7.834;2023-05-14T00:49:36;149722.47;;;6.78;100.00
3796;BME280;1913;50.660;7.834;2023-05-14T00:52:04;149721.22;;;6.78;100.00
3796;BME280;1913;50.660;7.834;2023-05-14T00:54:34;149717.50;;;6.76;100.00
3796;BME280;1913;50.660;7.834;2023-05-14T00:57:00;149702.44;;;6.70;100.00
3796;BME280;1913;50.660;7.834;2023-05-14T00:59:26;149688.63;;;6.64;100.00
3796;BME280;1913;50.660;7.834;2023-05-14T01:01:51;149694.91;;;6.67;100.00
3796;BME280;1913;50.660;7.834;2023-05-14T01:04:17;149697.41;;;6.68;100.00
3796;BME280;1913;50.660;7.834;2023-05-14T01:09:28;149703.69;;;6.70;100.00
3796;BME280;1913;50.660;7.834;2023-05-14T01:15:04;149674.88;;;6.59;100.00
3796;BME280;1913;50.660;7.834;2023-05-14T01:17:32;149683.66;;;6.62;100.00
3796;BME280;1913;50.660;7.834;2023-05-14T01:19:59;149663.56;;;6.54;100.00
3796;BME280;1913;50.660;7.834;2023-05-14T01:22:26;149676.13;;;6.59;100.00
3796;BME280;1913;50.660;7.834;2023-05-14T01:25:01;149666.13;;;6.55;100.00
3796;BME280;1913;50.660;7.834;2023-05-14T01:30:35;149652.31;;;6.50;100.00
3796;BME280;1913;50.660;7.834;2023-05-14T01:33:24;149653.56;;;6.50;100.00
3796;BME280;1913;50.660;7.834;2023-05-14T01:36:09;149663.56;;;6.54;100.00
3796;BME280;1913;50.660;7.834;2023-05-14T01:38:37;149658.59;;;6.52;100.00
3796;BME280;1913;50.660;7.834;2023-05-14T01:41:24;149666.13;;;6.55;100.00
3796;BME280;1913;50.660;7.834;2023-05-14T01:44:10;149657.34;;;6.52;100.00
3796;BME280;1913;50.660;7.834;2023-05-14T01:46:36;149661.06;;;6.53;100.00
3796;BME280;1913;50.660;7.834;2023-05-14T01:49:21;149673.63;;;6.58;100.00
3796;BME280;1913;50.660;7.834;2023-05-14T01:52:07;149673.63;;;6.58;100.00
3796;BME280;1913;50.660;7.834;2023-05-14T01:54:52;149653.56;;;6.50;100.00
3796;BME280;1913;50.660;7.834;2023-05-14T01:57:38;149681.13;;;6.61;100.00
3796;BME280;1913;50.660;7.834;2023-05-14T02:00:23;149672.34;;;6.58;100.00
3796;BME280;1913;50.660;7.834;2023-05-14T02:03:11;149672.34;;;6.58;100.00
3796;BME280;1913;50.660;7.834;2023-05-14T02:05:56;149677.38;;;6.60;100.00
3796;BME280;1913;50.660;7.834;2023-05-14T02:08:42;149659.84;;;6.53;100.00
3796;BME280;1913;50.660;7.834;2023-05-14T02:11:27;149673.63;;;6.58;100.00
3796;BME280;1913;50.660;7.834;2023-05-14T02:14:12;149681.13;;;6.61;100.00
3796;BME280;1913;50.660;7.834;2023-05-14T02:16:39;149674.88;;;6.59;100.00
3796;BME280;1913;50.660;7.834;2023-05-14T02:19:04;149698.66;;;6.68;100.00
3796;BME280;1913;50.660;7.834;2023-05-14T02:21:30;149692.44;;;6.66;100.00
3796;BME280;1913;50.660;7.834;2023-05-14T02:23:56;149692.44;;;6.66;100.00
3796;BME280;1913;50.660;7.834;2023-05-14T02:26:21;149699.94;;;6.69;100.00
3796;BME280;1913;50.660;7.834;2023-05-14T02:28:47;149691.19;;;6.65;100.00
3796;BME280;1913;50.660;7.834;2023-05-14T02:31:12;149699.94;;;6.69;100.00
3796;BME280;1913;50.660;7.834;2023-05-14T02:33:38;149727.50;;;6.80;100.00
3796;BME280;1913;50.660;7.834;2023-05-14T02:36:04;149737.53;;;6.84;100.00
3796;BME280;1913;50.660;7.834;2023-05-14T02:38:29;149722.47;;;6.78;100.00
3796;BME280;1913;50.660;7.834;2023-05-14T02:40:55;149723.72;;;6.79;100.00
3796;BME280;1913;50.660;7.834;2023-05-14T02:43:20;149731.25;;;6.82;100.00
3796;BME280;1913;50.660;7.834;2023-05-14T02:45:46;149713.72;;;6.75;100.00
3796;BME280;1913;50.660;7.834;2023-05-14T02:48:11;149718.75;;;6.77;100.00
3796;BME280;1913;50.660;7.834;2023-05-14T02:50:36;149707.44;;;6.72;100.00
3796;BME280;1913;50.660;7.834;2023-05-14T02:53:02;149718.75;;;6.77;100.00
3796;BME280;1913;50.660;7.834;2023-05-14T02:55:27;149722.47;;;6.78;100.00
3796;BME280;1913;50.660;7.834;2023-05-14T02:57:53;149716.19;;;6.76;100.00
3796;BME280;1913;50.660;7.834;2023-05-14T03:00:19;149708.72;;;6.72;100.00
3796;BME280;1913;50.660;7.834;2023-05-14T03:02:44;149696.16;;;6.67;100.00
3796;BME280;1913;50.660;7.834;2023-05-14T03:05:10;149707.44;;;6.72;100.00
3796;BME280;1913;50.660;7.834;2023-05-14T03:07:36;149683.66;;;6.62;100.00
3796;BME280;1913;50.660;7.834;2023-05-14T03:10:01;149701.19;;;6.69;100.00
3796;BME280;1913;50.660;7.834;2023-05-14T03:12:28;149687.38;;;6.64;100.00
3796;BME280;1913;50.660;7.834;2023-05-14T03:14:54;149689.88;;;6.65;100.00
3796;BME280;1913;50.660;7.834;2023-05-14T03:17:19;149691.19;;;6.65;100.00
3796;BME280;1913;50.660;7.834;2023-05-14T03:19:45;149679.88;;;6.61;100.00
3796;BME280;1913;50.660;7.834;2023-05-14T03:22:11;149676.13;;;6.59;100.00
3796;BME280;1913;50.660;7.834;2023-05-14T03:24:38;149691.19;;;6.65;100.00
3796;BME280;1913;50.660;7.834;2023-05-14T03:27:04;149686.16;;;6.63;100.00
3796;BME280;1913;50.660;7.834;2023-05-14T03:29:30;149676.13;;;6.59;100.00
3796;BME280;1913;50.660;7.834;2023-05-14T03:31:56;149673.63;;;6.58;100.00
3796;BME280;1913;50.660;7.834;2023-05-14T03:34:22;149663.56;;;6.54;100.00
3796;BME280;1913;50.660;7.834;2023-05-14T03:36:48;149652.31;;;6.50;100.00
3796;BME280;1913;50.660;7.834;2023-05-14T03:39:13;149657.34;;;6.52;100.00
3796;BME280;1913;50.660;7.834;2023-05-14T03:42:05;149661.06;;;6.53;100.00
3796;BME280;1913;50.660;7.834;2023-05-14T03:44:50;149713.72;;;6.75;100.00
3796;BME280;1913;50.660;7.834;2023-05-14T03:47:35;149736.28;;;6.84;100.00
3796;BME280;1913;50.660;7.834;2023-05-14T03:50:21;149727.50;;;6.80;100.00
3796;BME280;1913;50.660;7.834;2023-05-14T03:53:09;149748.78;;;6.89;100.00
3796;BME280;1913;50.660;7.834;2023-05-14T03:55:54;149746.31;;;6.88;100.00
3796;BME280;1913;50.660;7.834;2023-05-14T03:58:40;149751.28;;;6.90;100.00
3796;BME280;1913;50.660;7.834;2023-05-14T04:01:26;149763.84;;;6.95;100.00
3796;BME280;1913;50.660;7.834;2023-05-14T04:04:12;149778.91;;;7.01;100.00
3796;BME280;1913;50.660;7.834;2023-05-14T04:06:57;149777.59;;;7.01;100.00
3796;BME280;1913;50.660;7.834;2023-05-14T04:09:23;149776.34;;;7.00;100.00
3796;BME280;1913;50.660;7.834;2023-05-14T04:12:08;149781.41;;;7.02;100.00
3796;BME280;1913;50.660;7.834;2023-05-14T04:14:56;149778.91;;;7.01;100.00
3796;BME280;1913;50.660;7.834;2023-05-14T04:17:42;149771.38;;;6.98;100.00
3796;BME280;1913;50.660;7.834;2023-05-14T04:20:27;149737.53;;;6.84;100.00
3796;BME280;1913;50.660;7.834;2023-05-14T04:23:13;149732.50;;;6.82;100.00
3796;BME280;1913;50.660;7.834;2023-05-14T04:25:58;149716.19;;;6.76;100.00
3796;BME280;1913;50.660;7.834;2023-05-14T04:28:43;149721.22;;;6.78;100.00
3796;BME280;1913;50.660;7.834;2023-05-14T04:31:29;149743.81;;;6.87;100.00
3796;BME280;1913;50.660;7.834;2023-05-14T04:34:14;149723.72;;;6.79;100.00
3796;BME280;1913;50.660;7.834;2023-05-14T04:37:00;149746.31;;;6.88;100.00
3796;BME280;1913;50.660;7.834;2023-05-14T04:39:45;149757.56;;;6.92;100.00
3796;BME280;1913;50.660;7.834;2023-05-14T04:42:30;149771.38;;;6.98;100.00
3796;BME280;1913;50.660;7.834;2023-05-14T04:45:16;149796.44;;;7.08;100.00
3796;BME280;1913;50.660;7.834;2023-05-14T04:48:04;149818.97;;;7.17;100.00
3796;BME280;1913;50.660;7.834;2023-05-14T04:50:51;149855.34;;;7.32;100.00
3796;BME280;1913;50.660;7.834;2023-05-14T04:53:37;149891.72;;;7.47;100.00
3796;BME280;1913;50.660;7.834;2023-05-14T04:56:22;149974.47;;;7.81;100.00
3796;BME280;1913;50.660;7.834;2023-05-14T04:59:07;150162.72;;;8.57;100.00
3796;BME280;1913;50.660;7.834;2023-05-14T05:01:53;150379.81;;;9.46;100.00
3796;BME280;1913;50.660;7.834;2023-05-14T05:04:38;150617.25;;;10.42;100.00
3796;BME280;1913;50.660;7.834;2023-05-14T05:07:23;150847.28;;;11.36;100.00
3796;BME280;1913;50.660;7.834;2023-05-14T05:10:09;151048.53;;;12.17;100.00
3796;BME280;1913;50.660;7.834;2023-05-14T05:12:34;151213.38;;;12.84;100.00
3796;BME280;1913;50.660;7.834;2023-05-14T05:14:59;151351.84;;;13.40;100.00
3796;BME280;1913;50.660;7.834;2023-05-14T05:17:25;151476.53;;;13.91;100.00
3796;BME280;1913;50.660;7.834;2023-05-14T05:19:50;151565.94;;;14.27;100.00
3796;BME280;1913;50.660;7.834;2023-05-14T05:22:16;151652.94;;;14.63;100.00
3796;BME280;1913;50.660;7.834;2023-05-14T05:24:42;151693.22;;;14.79;100.00
3796;BME280;1913;50.660;7.834;2023-05-14T05:27:07;151833.13;;;15.36;100.00
3796;BME280;1913;50.660;7.834;2023-05-14T05:29:33;151870.91;;;15.51;100.00
3796;BME280;1913;50.660;7.834;2023-05-14T05:31:59;151999.59;;;16.03;100.00
3796;BME280;1913;50.660;7.834;2023-05-14T05:34:24;152089.13;;;16.39;100.00
3796;BME280;1913;50.660;7.834;2023-05-14T05:36:49;152090.38;;;16.40;100.00
3796;BME280;1913;50.660;7.834;2023-05-14T05:39:15;152207.78;;;16.87;100.00
3796;BME280;1913;50.660;7.834;2023-05-14T05:41:41;152332.72;;;17.38;100.00
3796;BME280;1913;50.660;7.834;2023-05-14T05:44:06;152337.78;;;17.40;99.50
3796;BME280;1913;50.660;7.834;2023-05-14T05:46:31;152491.81;;;18.02;93.24
3796;BME280;1913;50.660;7.834;2023-05-14T05:48:57;152570.09;;;18.34;94.42
3796;BME280;1913;50.660;7.834;2023-05-14T05:51:22;152645.91;;;18.64;88.65
3796;BME280;1913;50.660;7.834;2023-05-14T05:53:47;152724.28;;;18.96;81.05
3796;BME280;1913;50.660;7.834;2023-05-14T05:56:13;152762.16;;;19.11;77.69
3796;BME280;1913;50.660;7.834;2023-05-14T05:58:38;152855.63;;;19.49;71.78
3796;BME280;1913;50.660;7.834;2023-05-14T06:01:03;152969.44;;;19.95;71.64
3796;BME280;1913;50.660;7.834;2023-05-14T06:03:29;153041.53;;;20.24;66.24
3796;BME280;1913;50.660;7.834;2023-05-14T06:05:54;152970.75;;;19.96;65.36
3796;BME280;1913;50.660;7.834;2023-05-14T06:08:19;153007.41;;;20.11;70.29
3796;BME280;1913;50.660;7.834;2023-05-14T06:10:45;152960.59;;;19.92;65.20
3796;BME280;1913;50.660;7.834;2023-05-14T06:13:10;152877.16;;;19.58;71.47
3796;BME280;1913;50.660;7.834;2023-05-14T06:15:36;152771.00;;;19.15;72.43
3796;BME280;1913;50.660;7.834;2023-05-14T06:18:01;152815.22;;;19.33;70.72
3796;BME280;1913;50.660;7.834;2023-05-14T06:20:26;152626.91;;;18.57;79.10
3796;BME280;1913;50.660;7.834;2023-05-14T06:22:52;152678.75;;;18.78;82.66
3796;BME280;1913;50.660;7.834;2023-05-14T06:25:17;152752.06;;;19.07;75.46
3796;BME280;1913;50.660;7.834;2023-05-14T06:27:43;152789.97;;;19.23;69.78
3796;BME280;1913;50.660;7.834;2023-05-14T06:30:09;152649.69;;;18.66;83.77
3796;BME280;1913;50.660;7.834;2023-05-14T06:32:35;152710.34;;;18.90;73.25
3796;BME280;1913;50.660;7.834;2023-05-14T06:35:01;152740.66;;;19.03;73.61
3796;BME280;1913;50.660;7.834;2023-05-14T06:37:26;152739.41;;;19.02;72.92
3796;BME280;1913;50.660;7.834;2023-05-14T06:39:51;152787.44;;;19.22;76.78
3796;BME280;1913;50.660;7.834;2023-05-14T06:42:17;152803.88;;;19.28;71.87
3796;BME280;1913;50.660;7.834;2023-05-14T06:44:43;152894.91;;;19.65;70.68
3796;BME280;1913;50.660;7.834;2023-05-14T06:47:09;152901.22;;;19.68;73.81
3796;BME280;1913;50.660;7.834;2023-05-14T06:49:35;152892.38;;;19.64;74.09
3796;BME280;1913;50.660;7.834;2023-05-14T06:52:00;152863.22;;;19.52;67.14
3796;BME280;1913;50.660;7.834;2023-05-14T06:54:26;152817.75;;;19.34;68.19
3796;BME280;1913;50.660;7.834;2023-05-14T06:56:52;152620.63;;;18.54;72.54
3796;BME280;1913;50.660;7.834;2023-05-14T06:59:17;152591.56;;;18.42;75.85
3796;BME280;1913;50.660;7.834;2023-05-14T07:01:42;152619.38;;;18.54;74.83
3796;BME280;1913;50.660;7.834;2023-05-14T07:04:08;152675.00;;;18.76;80.23
3796;BME280;1913;50.660;7.834;2023-05-14T07:06:33;152736.88;;;19.01;73.46
3796;BME280;1913;50.660;7.834;2023-05-14T07:09:00;152704.03;;;18.88;70.78
3796;BME280;1913;50.660;7.834;2023-05-14T07:11:25;152695.19;;;18.84;69.33
3796;BME280;1913;50.660;7.834;2023-05-14T07:13:50;152606.72;;;18.49;72.71
3796;BME280;1913;50.660;7.834;2023-05-14T07:16:16;152640.84;;;18.62;74.04
3796;BME280;1913;50.660;7.834;2023-05-14T07:18:41;152677.50;;;18.77;73.36
3796;BME280;1913;50.660;7.834;2023-05-14T07:21:07;152774.78;;;19.17;69.16
3796;BME280;1913;50.660;7.834;2023-05-14T07:23:33;152688.84;;;18.82;69.12
3796;BME280;1913;50.660;7.834;2023-05-14T07:26:01;152745.72;;;19.05;76.85
3796;BME280;1913;50.660;7.834;2023-05-14T07:28:26;152733.13;;;19.00;71.46
3796;BME280;1913;50.660;7.834;2023-05-14T07:30:52;152606.72;;;18.49;72.78
3796;BME280;1913;50.660;7.834;2023-05-14T07:33:18;152664.88;;;18.72;77.30
3796;BME280;1913;50.660;7.834;2023-05-14T07:35:43;152595.38;;;18.44;73.26
3796;BME280;1913;50.660;7.834;2023-05-14T07:38:09;152615.56;;;18.52;77.34
3796;BME280;1913;50.660;7.834;2023-05-14T07:40:34;152611.78;;;18.51;75.57
3796;BME280;1913;50.660;7.834;2023-05-14T07:42:59;152643.34;;;18.63;71.63
3796;BME280;1913;50.660;7.834;2023-05-14T07:45:25;152691.41;;;18.83;76.13
3796;BME280;1913;50.660;7.834;2023-05-14T07:47:50;152630.72;;;18.58;74.16
3796;BME280;1913;50.660;7.834;2023-05-14T07:50:19;152653.44;;;18.67;69.61
3796;BME280;1913;50.660;7.834;2023-05-14T07:52:44;152581.47;;;18.38;75.93
3796;BME280;1913;50.660;7.834;2023-05-14T07:55:11;152577.69;;;18.37;70.92
3796;BME280;1913;50.660;7.834;2023-05-14T07:57:37;152554.94;;;18.28;73.51
3796;BME280;1913;50.660;7.834;2023-05-14T08:00:03;152589.03;;;18.41;72.53
3796;BME280;1913;50.660;7.834;2023-05-14T08:02:29;152658.50;;;18.70;69.17
3796;BME280;1913;50.660;7.834;2023-05-14T08:04:54;152853.13;;;19.48;76.43
3796;BME280;1913;50.660;7.834;2023-05-14T08:07:19;152980.84;;;20.00;63.85
3796;BME280;1913;50.660;7.834;2023-05-14T08:09:45;152965.66;;;19.94;57.68
3796;BME280;1913;50.660;7.834;2023-05-14T08:12:11;152921.44;;;19.76;61.63
3796;BME280;1913;50.660;7.834;2023-05-14T08:14:36;152870.81;;;19.55;59.07
3796;BME280;1913;50.660;7.834;2023-05-14T08:17:02;153004.84;;;20.09;61.26
3796;BME280;1913;50.660;7.834;2023-05-14T08:19:29;153156.66;;;20.71;60.32
3796;BME280;1913;50.660;7.834;2023-05-14T08:21:55;153202.19;;;20.89;57.09
3796;BME280;1913;50.660;7.834;2023-05-14T08:24:20;153214.81;;;20.94;55.36
3796;BME280;1913;50.660;7.834;2023-05-14T08:26:45;153213.53;;;20.94;55.34
3796;BME280;1913;50.660;7.834;2023-05-14T08:29:11;153011.16;;;20.12;53.63
3796;BME280;1913;50.660;7.834;2023-05-14T08:31:36;152930.28;;;19.79;56.00
3796;BME280;1913;50.660;7.834;2023-05-14T08:34:02;152837.94;;;19.42;58.82
3796;BME280;1913;50.660;7.834;2023-05-14T08:36:27;152749.50;;;19.06;58.41
3796;BME280;1913;50.660;7.834;2023-05-14T08:38:53;152851.88;;;19.48;55.67
3796;BME280;1913;50.660;7.834;2023-05-14T08:41:18;152922.69;;;19.76;57.06
3796;BME280;1913;50.660;7.834;2023-05-14T08:46:18;153025.09;;;20.18;55.00
3796;BME280;1913;50.660;7.834;2023-05-14T08:48:47;153084.50;;;20.42;55.01
3796;BME280;1913;50.660;7.834;2023-05-14T08:51:15;152844.28;;;19.45;55.72
3796;BME280;1913;50.660;7.834;2023-05-14T08:53:40;152874.63;;;19.57;56.40
3796;BME280;1913;50.660;7.834;2023-05-14T08:56:07;152977.03;;;19.98;59.92
3796;BME280;1913;50.660;7.834;2023-05-14T08:58:32;152880.91;;;19.59;55.23
3796;BME280;1913;50.660;7.834;2023-05-14T09:00:58;153013.69;;;20.13;54.08
3796;BME280;1913;50.660;7.834;2023-05-14T09:03:23;152931.53;;;19.80;54.63
3796;BME280;1913;50.660;7.834;2023-05-14T09:05:49;152956.81;;;19.90;54.63
3796;BME280;1913;50.660;7.834;2023-05-14T09:08:16;152979.59;;;19.99;54.07
3796;BME280;1913;50.660;7.834;2023-05-14T09:10:42;152907.50;;;19.70;55.50
3796;BME280;1913;50.660;7.834;2023-05-14T09:13:07;153076.94;;;20.39;54.45
3796;BME280;1913;50.660;7.834;2023-05-14T09:15:36;153235.06;;;21.02;49.80
3796;BME280;1913;50.660;7.834;2023-05-14T09:18:04;153136.38;;;20.63;47.79
3796;BME280;1913;50.660;7.834;2023-05-14T09:20:30;153202.19;;;20.89;47.31
3796;BME280;1913;50.660;7.834;2023-05-14T09:22:56;153242.63;;;21.05;48.54
3796;BME280;1913;50.660;7.834;2023-05-14T09:25:30;153171.78;;;20.77;47.89
3796;BME280;1913;50.660;7.834;2023-05-14T09:27:56;153175.63;;;20.78;46.88
3796;BME280;1913;50.660;7.834;2023-05-14T09:30:23;153003.59;;;20.09;49.41
3796;BME280;1913;50.660;7.834;2023-05-14T09:32:48;153016.25;;;20.14;48.79
3796;BME280;1913;50.660;7.834;2023-05-14T09:35:20;153154.09;;;20.70;49.95
3796;BME280;1913;50.660;7.834;2023-05-14T09:37:47;153302.09;;;21.29;45.30
3796;BME280;1913;50.660;7.834;2023-05-14T09:40:13;153357.78;;;21.52;47.30
3796;BME280;1913;50.660;7.834;2023-05-14T09:42:39;153323.66;;;21.38;50.98
3796;BME280;1913;50.660;7.834;2023-05-14T09:45:09;153352.75;;;21.50;47.89
3796;BME280;1913;50.660;7.834;2023-05-14T09:47:35;153438.81;;;21.85;46.35
3796;BME280;1913;50.660;7.834;2023-05-14T09:50:01;153413.50;;;21.74;44.44
3796;BME280;1913;50.660;7.834;2023-05-14T09:52:27;153446.34;;;21.88;45.12
3796;BME280;1913;50.660;7.834;2023-05-14T09:54:52;153471.69;;;21.98;44.73
3796;BME280;1913;50.660;7.834;2023-05-14T09:57:18;153418.53;;;21.76;43.67
3796;BME280;1913;50.660;7.834;2023-05-14T09:59:44;153554.03;;;22.31;43.40
3796;BME280;1913;50.660;7.834;2023-05-14T10:02:32;153638.81;;;22.65;43.35
3796;BME280;1913;50.660;7.834;2023-05-14T10:05:03;153899.81;;;23.71;42.86
3796;BME280;1913;50.660;7.834;2023-05-14T10:07:34;154086.09;;;24.46;40.04
3796;BME280;1913;50.660;7.834;2023-05-14T10:10:02;154073.47;;;24.41;40.37
3796;BME280;1913;50.660;7.834;2023-05-14T10:12:34;154061.97;;;24.36;38.67
3796;BME280;1913;50.660;7.834;2023-05-14T10:15:03;154040.44;;;24.27;40.19
3796;BME280;1913;50.660;7.834;2023-05-14T10:17:33;153949.19;;;23.90;40.62
3796;BME280;1913;50.660;7.834;2023-05-14T10:20:01;153927.66;;;23.82;40.73
3796;BME280;1913;50.660;7.834;2023-05-14T10:22:33;154063.22;;;24.36;38.51
3796;BME280;1913;50.660;7.834;2023-05-14T10:24:59;154272.47;;;25.21;37.74
3796;BME280;1913;50.660;7.834;2023-05-14T10:27:26;154564.22;;;26.38;37.67
3796;BME280;1913;50.660;7.834;2023-05-14T10:29:52;154533.78;;;26.26;33.85
3796;BME280;1913;50.660;7.834;2023-05-14T10:32:20;154617.53;;;26.60;34.17
3796;BME280;1913;50.660;7.834;2023-05-14T10:34:49;154400.56;;;25.72;34.26
3796;BME280;1913;50.660;7.834;2023-05-14T10:37:23;154392.97;;;25.69;34.70
3796;BME280;1913;50.660;7.834;2023-05-14T10:39:50;154316.84;;;25.39;34.83
3796;BME280;1913;50.660;7.834;2023-05-14T10:42:18;153964.41;;;23.97;36.74
3796;BME280;1913;50.660;7.834;2023-05-14T10:44:50;153997.34;;;24.10;36.31
3796;BME280;1913;50.660;7.834;2023-05-14T10:47:16;154067.06;;;24.38;36.18
3796;BME280;1913;50.660;7.834;2023-05-14T10:49:43;154172.31;;;24.80;35.96
3796;BME280;1913;50.660;7.834;2023-05-14T10:52:10;154231.84;;;25.04;34.33
3796;BME280;1913;50.660;7.834;2023-05-14T10:54:36;154188.78;;;24.87;33.95
3796;BME280;1913;50.660;7.834;2023-05-14T10:57:02;154174.81;;;24.81;36.05
3796;BME280;1913;50.660;7.834;2023-05-14T10:59:27;154093.72;;;24.49;36.80
3796;BME280;1913;50.660;7.834;2023-05-14T11:01:53;153898.56;;;23.70;38.18
3796;BME280;1913;50.660;7.834;2023-05-14T11:04:23;153915.03;;;23.77;37.72
3796;BME280;1913;50.660;7.834;2023-05-14T11:06:50;153673.00;;;22.79;38.77
3796;BME280;1913;50.660;7.834;2023-05-14T11:09:16;153821.22;;;23.39;39.58
3796;BME280;1913;50.660;7.834;2023-05-14T11:11:42;153937.81;;;23.86;38.03
3796;BME280;1913;50.660;7.834;2023-05-14T11:14:08;154124.13;;;24.61;38.27
3796;BME280;1913;50.660;7.834;2023-05-14T11:16:34;154240.72;;;25.08;34.77
3796;BME280;1913;50.660;7.834;2023-05-14T11:19:01;154367.59;;;25.59;35.98
3796;BME280;1913;50.660;7.834;2023-05-14T11:21:28;154286.44;;;25.26;33.98
3796;BME280;1913;50.660;7.834;2023-05-14T11:23:54;154349.84;;;25.52;34.05
3796;BME280;1913;50.660;7.834;2023-05-14T11:26:19;154485.56;;;26.07;33.73
3796;BME280;1913;50.660;7.834;2023-05-14T11:28:45;154682.22;;;26.86;31.58
3796;BME280;1913;50.660;7.834;2023-05-14T11:31:11;154781.31;;;27.26;31.30
3796;BME280;1913;50.660;7.834;2023-05-14T11:33:36;154773.69;;;27.23;30.67
3796;BME280;1913;50.660;7.834;2023-05-14T11:36:01;154759.69;;;27.17;31.99
3796;BME280;1913;50.660;7.834;2023-05-14T11:38:27;154574.34;;;26.42;30.16
3796;BME280;1913;50.660;7.834;2023-05-14T11:40:57;154428.50;;;25.84;30.33
3796;BME280;1913;50.660;7.834;2023-05-14T11:43:23;154299.09;;;25.31;30.93
3796;BME280;1913;50.660;7.834;2023-05-14T11:45:50;154235.69;;;25.06;32.80
3796;BME280;1913;50.660;7.834;2023-05-14T11:48:16;154190.06;;;24.88;32.28
3796;BME280;1913;50.660;7.834;2023-05-14T11:50:52;154153.31;;;24.73;33.71
3796;BME280;1913;50.660;7.834;2023-05-14T11:53:17;154192.56;;;24.89;32.86
3796;BME280;1913;50.660;7.834;2023-05-14T11:55:44;154140.59;;;24.68;31.03
3796;BME280;1913;50.660;7.834;2023-05-14T11:58:10;154196.34;;;24.90;31.67
3796;BME280;1913;50.660;7.834;2023-05-14T12:00:37;153879.50;;;23.62;33.96
3796;BME280;1913;50.660;7.834;2023-05-14T12:03:02;153921.31;;;23.79;35.33
3796;BME280;1913;50.660;7.834;2023-05-14T12:05:28;153827.56;;;23.41;36.17
3796;BME280;1913;50.660;7.834;2023-05-14T12:07:53;153712.34;;;22.95;35.11
3796;BME280;1913;50.660;7.834;2023-05-14T12:10:20;153779.41;;;23.22;33.98
3796;BME280;1913;50.660;7.834;2023-05-14T12:12:47;153852.91;;;23.52;34.12
3796;BME280;1913;50.660;7.834;2023-05-14T12:15:13;154041.72;;;24.28;33.74
3796;BME280;1913;50.660;7.834;2023-05-14T12:17:39;153982.16;;;24.04;34.86
3796;BME280;1913;50.660;7.834;2023-05-14T12:20:07;154017.63;;;24.18;32.32
3796;BME280;1913;50.660;7.834;2023-05-14T12:22:34;154127.94;;;24.63;31.88
3796;BME280;1913;50.660;7.834;2023-05-14T12:24:59;154073.47;;;24.41;32.00
3796;BME280;1913;50.660;7.834;2023-05-14T12:27:27;154044.22;;;24.29;33.02
3796;BME280;1913;50.660;7.834;2023-05-14T12:30:02;154172.31;;;24.80;32.16
3796;BME280;1913;50.660;7.834;2023-05-14T12:32:32;154021.44;;;24.20;33.38
3796;BME280;1913;50.660;7.834;2023-05-14T12:34:58;153871.91;;;23.59;34.90
3796;BME280;1913;50.660;7.834;2023-05-14T12:37:25;153619.84;;;22.58;34.52
3796;BME280;1913;50.660;7.834;2023-05-14T12:39:50;153528.72;;;22.21;36.63
3796;BME280;1913;50.660;7.834;2023-05-14T12:42:16;153364.13;;;21.55;37.66
3796;BME280;1913;50.660;7.834;2023-05-14T12:44:41;153318.59;;;21.36;38.28
3796;BME280;1913;50.660;7.834;2023-05-14T12:47:07;153242.63;;;21.05;38.08
3796;BME280;1913;50.660;7.834;2023-05-14T12:49:32;153281.84;;;21.21;37.51
3796;BME280;1913;50.660;7.834;2023-05-14T12:51:57;153341.38;;;21.45;36.83
3796;BME280;1913;50.660;7.834;2023-05-14T12:54:23;153452.69;;;21.90;37.75
3796;BME280;1913;50.660;7.834;2023-05-14T12:56:48;153552.78;;;22.31;35.96
3796;BME280;1913;50.660;7.834;2023-05-14T12:59:14;153559.06;;;22.33;36.14
3796;BME280;1913;50.660;7.834;2023-05-14T13:01:40;153694.56;;;22.88;36.97
3796;BME280;1913;50.660;7.834;2023-05-14T13:04:06;153854.16;;;23.52;38.39
3796;BME280;1913;50.660;7.834;2023-05-14T13:06:32;154131.72;;;24.64;36.96
3796;BME280;1913;50.660;7.834;2023-05-14T13:08:58;154200.19;;;24.92;36.05
3796;BME280;1913;50.660;7.834;2023-05-14T13:11:25;154167.22;;;24.78;35.08
3796;BME280;1913;50.660;7.834;2023-05-14T13:13:53;154159.59;;;24.75;32.71
3796;BME280;1913;50.660;7.834;2023-05-14T13:16:18;154217.94;;;24.99;32.32
3796;BME280;1913;50.660;7.834;2023-05-14T13:18:44;154354.88;;;25.54;30.72
3796;BME280;1913;50.660;7.834;2023-05-14T13:21:09;154502.06;;;26.13;29.91
3796;BME280;1913;50.660;7.834;2023-05-14T13:23:34;154564.22;;;26.38;28.14
3796;BME280;1913;50.660;7.834;2023-05-14T13:26:00;154517.28;;;26.19;27.54
3796;BME280;1913;50.660;7.834;2023-05-14T13:28:25;154362.50;;;25.57;29.85
3796;BME280;1913;50.660;7.834;2023-05-14T13:31:05;154387.88;;;25.67;29.35